sensor_id;sensor_type;location;lat;lon;timestamp;pressure;altitude;pressure_sealevel;temperature;humidity
14293;BME280;62290;59.420;17.842;2023-02-22T00:01:41;101482.81;;;25.29;16.47
14293;BME280;62290;59.420;17.842;2023-02-22T00:04:17;101482.81;;;25.29;15.99
14293;BME280;62290;59.420;17.842;2023-02-22T00:06:47;101488.06;;;25.30;16.44
14293;BME280;62290;59.420;17.842;2023-02-22T00:09:17;101490.63;;;25.32;16.07
14293;BME280;62290;59.420;17.842;2023-02-22T00:11:47;101492.59;;;25.30;16.33
14293;BME280;62290;59.420;17.842;2023-02-22T00:14:15;101501.69;;;25.29;16.46
14293;BME280;62290;59.420;17.842;2023-02-22T00:16:46;101503.53;;;25.28;15.92
14293;BME280;62290;59.420;17.842;2023-02-22T00:19:14;101499.97;;;25.28;16.16
14293;BME280;62290;59.420;17.842;2023-02-22T00:21:42;101502.91;;;25.25;16.09
14293;BME280;62290;59.420;17.842;2023-02-22T00:24:10;101509.31;;;25.24;16.06
14293;BME280;62290;59.420;17.842;2023-02-22T00:26:51;101501.94;;;25.26;15.96
14293;BME280;62290;59.420;17.842;2023-02-22T00:29:21;101508.91;;;25.28;15.75
14293;BME280;62290;59.420;17.842;2023-02-22T00:31:50;101506.81;;;25.32;15.89
14293;BME280;62290;59.420;17.842;2023-02-22T00:34:18;101504.00;;;25.33;15.90
14293;BME280;62290;59.420;17.842;2023-02-22T00:36:47;101511.00;;;25.36;16.01
14293;BME280;62290;59.420;17.842;2023-02-22T00:39:16;101508.28;;;25.36;15.82
14293;BME280;62290;59.420;17.842;2023-02-22T00:41:44;101504.47;;;25.38;15.62
14293;BME280;62290;59.420;17.842;2023-02-22T00:44:13;101508.03;;;25.39;16.10
14293;BME280;62290;59.420;17.842;2023-02-22T00:46:41;101501.91;;;25.37;15.99
14293;BME280;62290;59.420;17.842;2023-02-22T00:49:09;101508.16;;;25.37;15.76
14293;BME280;62290;59.420;17.842;2023-02-22T00:51:37;101509.25;;;25.35;15.74
14293;BME280;62290;59.420;17.842;2023-02-22T00:54:05;101506.81;;;25.32;15.76
14293;BME280;62290;59.420;17.842;2023-02-22T00:56:33;101510.63;;;25.29;15.91
14293;BME280;62290;59.420;17.842;2023-02-22T00:59:02;101518.72;;;25.29;15.76
14293;BME280;62290;59.420;17.842;2023-02-22T01:01:31;101513.31;;;25.29;15.71
14293;BME280;62290;59.420;17.842;2023-02-22T01:03:59;101518.72;;;25.29;15.75
14293;BME280;62290;59.420;17.842;2023-02-22T01:06:28;101521.31;;;25.31;15.75
14293;BME280;62290;59.420;17.842;2023-02-22T01:08:57;101521.31;;;25.31;15.75
14293;BME280;62290;59.420;17.842;2023-02-22T01:11:25;101529.16;;;25.34;15.83
14293;BME280;62290;59.420;17.842;2023-02-22T01:13:53;101531.00;;;25.33;15.54
14293;BME280;62290;59.420;17.842;2023-02-22T01:16:21;101526.69;;;25.31;15.98
14293;BME280;62290;59.420;17.842;2023-02-22T01:18:50;101534.06;;;25.29;15.79
14293;BME280;62290;59.420;17.842;2023-02-22T01:21:19;101542.28;;;25.27;15.44
14293;BME280;62290;59.420;17.842;2023-02-22T01:23:47;101542.03;;;25.30;15.74
14293;BME280;62290;59.420;17.842;2023-02-22T01:26:15;101543.75;;;25.31;15.63
14293;BME280;62290;59.420;17.842;2023-02-22T01:28:43;101543.63;;;25.33;15.60
14293;BME280;62290;59.420;17.842;2023-02-22T01:31:11;101545.44;;;25.32;15.57
14293;BME280;62290;59.420;17.842;2023-02-22T01:33:39;101547.78;;;25.37;15.21
14293;BME280;62290;59.420;17.842;2023-02-22T01:36:09;101550.09;;;25.41;15.53
14293;BME280;62290;59.420;17.842;2023-02-22T01:38:38;101549.38;;;25.39;15.63
14293;BME280;62290;59.420;17.842;2023-02-22T01:41:06;101556.09;;;25.45;15.61
14293;BME280;62290;59.420;17.842;2023-02-22T01:43:35;101547.06;;;25.46;15.67
14293;BME280;62290;59.420;17.842;2023-02-22T01:46:04;101554.91;;;25.49;15.16
14293;BME280;62290;59.420;17.842;2023-02-22T01:48:38;101556.59;;;25.50;15.41
14293;BME280;62290;59.420;17.842;2023-02-22T01:51:13;101561.03;;;25.51;15.56
14293;BME280;62290;59.420;17.842;2023-02-22T01:53:46;101559.31;;;25.50;15.29
14293;BME280;62290;59.420;17.842;2023-02-22T01:56:17;101554.91;;;25.49;15.42
14293;BME280;62290;59.420;17.842;2023-02-22T01:58:49;101558.47;;;25.49;15.81
14293;BME280;62290;59.420;17.842;2023-02-22T02:01:21;101560.31;;;25.49;15.73
14293;BME280;62290;59.420;17.842;2023-02-22T02:03:51;101532.81;;;25.33;15.65
14293;BME280;62290;59.420;17.842;2023-02-22T02:06:25;101562.88;;;25.50;15.45
14293;BME280;62290;59.420;17.842;2023-02-22T02:09:13;101566.66;;;25.48;15.61
14293;BME280;62290;59.420;17.842;2023-02-22T02:11:44;101557.09;;;25.44;15.52
14293;BME280;62290;59.420;17.842;2023-02-22T02:14:13;101567.69;;;25.47;15.49
14293;BME280;62290;59.420;17.842;2023-02-22T02:16:44;101560.41;;;25.47;15.64
14293;BME280;62290;59.420;17.842;2023-02-22T02:19:19;101566.81;;;25.46;15.29
14293;BME280;62290;59.420;17.842;2023-02-22T02:34:18;101566.81;;;25.46;15.70
14293;BME280;62290;59.420;17.842;2023-02-22T02:36:57;101572.22;;;25.46;15.29
14293;BME280;62290;59.420;17.842;2023-02-22T02:39:29;101572.28;;;25.45;15.28
14293;BME280;62290;59.420;17.842;2023-02-22T02:42:02;101574.66;;;25.49;15.73
14293;BME280;62290;59.420;17.842;2023-02-22T02:44:37;101570.00;;;25.51;15.60
14293;BME280;62290;59.420;17.842;2023-02-22T02:47:11;101571.81;;;25.51;15.44
14293;BME280;62290;59.420;17.842;2023-02-22T02:49:47;101575.38;;;25.51;15.70
14293;BME280;62290;59.420;17.842;2023-02-22T02:52:18;101567.41;;;25.50;15.31
14293;BME280;62290;59.420;17.842;2023-02-22T02:54:49;101580.06;;;25.49;15.56
14293;BME280;62290;59.420;17.842;2023-02-22T02:57:18;101578.47;;;25.47;15.25
14293;BME280;62290;59.420;17.842;2023-02-22T02:59:46;101583.88;;;25.47;15.69
14293;BME280;62290;59.420;17.842;2023-02-22T03:02:31;101583.88;;;25.47;15.65
14293;BME280;62290;59.420;17.842;2023-02-22T03:05:15;101578.44;;;25.36;15.56
14293;BME280;62290;59.420;17.842;2023-02-22T03:07:51;101597.56;;;25.44;15.57
14293;BME280;62290;59.420;17.842;2023-02-22T03:10:37;101583.59;;;25.39;15.29
14293;BME280;62290;59.420;17.842;2023-02-22T03:13:18;101596.72;;;25.43;15.74
14293;BME280;62290;59.420;17.842;2023-02-22T03:15:55;101591.69;;;25.39;15.39
14293;BME280;62290;59.420;17.842;2023-02-22T03:18:34;101595.50;;;25.36;15.67
14293;BME280;62290;59.420;17.842;2023-02-22T03:21:14;101603.47;;;25.38;15.26
14293;BME280;62290;59.420;17.842;2023-02-22T03:23:52;101604.19;;;25.40;15.50
14293;BME280;62290;59.420;17.842;2023-02-22T03:26:38;101605.91;;;25.41;15.67
14293;BME280;62290;59.420;17.842;2023-02-22T03:29:10;101610.34;;;25.42;15.68
14293;BME280;62290;59.420;17.842;2023-02-22T03:31:46;101605.78;;;25.42;15.30
14293;BME280;62290;59.420;17.842;2023-02-22T03:34:23;101610.34;;;25.42;15.38
14293;BME280;62290;59.420;17.842;2023-02-22T03:36:58;101615.75;;;25.42;15.66
14293;BME280;62290;59.420;17.842;2023-02-22T03:39:29;101621.13;;;25.42;15.40
14293;BME280;62290;59.420;17.842;2023-02-22T03:42:03;101619.03;;;25.45;15.46
14293;BME280;62290;59.420;17.842;2023-02-22T03:44:37;101618.16;;;25.45;15.72
14293;BME280;62290;59.420;17.842;2023-02-22T03:47:09;101615.41;;;25.46;15.49
14293;BME280;62290;59.420;17.842;2023-02-22T03:49:41;101619.78;;;25.47;15.45
14293;BME280;62290;59.420;17.842;2023-02-22T03:52:14;101612.91;;;25.43;15.65
14293;BME280;62290;59.420;17.842;2023-02-22T03:54:43;101621.88;;;25.44;15.45
14293;BME280;62290;59.420;17.842;2023-02-22T03:57:14;101621.97;;;25.42;15.40
14293;BME280;62290;59.420;17.842;2023-02-22T03:59:44;101624.81;;;25.41;15.82
14293;BME280;62290;59.420;17.842;2023-02-22T04:02:13;101623.22;;;25.38;15.41
14293;BME280;62290;59.420;17.842;2023-02-22T04:04:45;101625.03;;;25.38;15.81
14293;BME280;62290;59.420;17.842;2023-02-22T04:07:15;101626.06;;;25.37;15.90
14293;BME280;62290;59.420;17.842;2023-02-22T04:09:43;101628.13;;;25.33;15.75
14293;BME280;62290;59.420;17.842;2023-02-22T04:12:12;101638.91;;;25.33;15.68
14293;BME280;62290;59.420;17.842;2023-02-22T04:14:54;101639.16;;;25.30;15.90
14293;BME280;62290;59.420;17.842;2023-02-22T04:17:22;101633.75;;;25.30;15.58
14293;BME280;62290;59.420;17.842;2023-02-22T04:19:50;101648.22;;;25.29;15.51
14293;BME280;62290;59.420;17.842;2023-02-22T04:22:22;101654.47;;;25.30;15.63
14293;BME280;62290;59.420;17.842;2023-02-22T04:24:51;101652.50;;;25.32;15.70
14293;BME280;62290;59.420;17.842;2023-02-22T04:27:20;101661.59;;;25.31;15.49
14293;BME280;62290;59.420;17.842;2023-02-22T04:29:49;101660.59;;;25.32;15.80
14293;BME280;62290;59.420;17.842;2023-02-22T04:32:17;101662.34;;;25.33;15.64
14293;BME280;62290;59.420;17.842;2023-02-22T04:34:45;101665.91;;;25.33;15.52
14293;BME280;62290;59.420;17.842;2023-02-22T04:37:13;101664.06;;;25.34;15.58
14293;BME280;62290;59.420;17.842;2023-02-22T04:39:43;101662.34;;;25.33;15.58
14293;BME280;62290;59.420;17.842;2023-02-22T04:42:11;101660.50;;;25.33;15.51
14293;BME280;62290;59.420;17.842;2023-02-22T04:44:39;101670.56;;;25.31;15.83
14293;BME280;62290;59.420;17.842;2023-02-22T04:47:07;101659.78;;;25.31;15.46
14293;BME280;62290;59.420;17.842;2023-02-22T04:49:35;101665.16;;;25.31;15.96
14293;BME280;62290;59.420;17.842;2023-02-22T04:52:05;101675.22;;;25.29;15.88
14293;BME280;62290;59.420;17.842;2023-02-22T04:54:36;101668.22;;;25.27;15.61
14293;BME280;62290;59.420;17.842;2023-02-22T04:57:06;101669.06;;;25.27;16.02
14293;BME280;62290;59.420;17.842;2023-02-22T04:59:34;101673.59;;;25.27;15.92
14293;BME280;62290;59.420;17.842;2023-02-22T05:02:02;101669.44;;;25.23;15.98
14293;BME280;62290;59.420;17.842;2023-02-22T05:04:31;101678.50;;;25.22;15.88
14293;BME280;62290;59.420;17.842;2023-02-22T05:06:59;101698.25;;;25.22;16.13
14293;BME280;62290;59.420;17.842;2023-02-22T05:09:27;101689.44;;;25.20;15.77
14293;BME280;62290;59.420;17.842;2023-02-22T05:11:55;101690.16;;;25.22;15.88
14293;BME280;62290;59.420;17.842;2023-02-22T05:14:24;101678.28;;;25.25;16.27
14293;BME280;62290;59.420;17.842;2023-02-22T05:16:53;101689.94;;;25.25;16.09
14293;BME280;62290;59.420;17.842;2023-02-22T05:19:22;101683.56;;;25.26;15.90
14293;BME280;62290;59.420;17.842;2023-02-22T05:21:50;101685.28;;;25.27;15.90
14293;BME280;62290;59.420;17.842;2023-02-22T05:24:18;101688.84;;;25.28;16.13
14293;BME280;62290;59.420;17.842;2023-02-22T05:26:47;101685.75;;;25.32;16.17
14293;BME280;62290;59.420;17.842;2023-02-22T05:29:16;101685.75;;;25.32;15.99
14293;BME280;62290;59.420;17.842;2023-02-22T05:31:46;101690.91;;;25.35;16.24
14293;BME280;62290;59.420;17.842;2023-02-22T05:34:14;101692.50;;;25.38;16.22
14293;BME280;62290;59.420;17.842;2023-02-22T05:36:43;101695.94;;;25.40;16.14
14293;BME280;62290;59.420;17.842;2023-02-22T05:39:12;101699.50;;;25.40;16.22
14293;BME280;62290;59.420;17.842;2023-02-22T05:41:40;101696.94;;;25.39;15.90
14293;BME280;62290;59.420;17.842;2023-02-22T05:44:08;101711.88;;;25.43;15.95
14293;BME280;62290;59.420;17.842;2023-02-22T05:46:36;101711.78;;;25.44;16.12
14293;BME280;62290;59.420;17.842;2023-02-22T05:49:05;101709.91;;;25.45;16.17
14293;BME280;62290;59.420;17.842;2023-02-22T05:51:33;101707.22;;;25.45;15.80
14293;BME280;62290;59.420;17.842;2023-02-22T05:54:01;101718.03;;;25.45;15.90
14293;BME280;62290;59.420;17.842;2023-02-22T05:56:29;101709.91;;;25.45;16.15
14293;BME280;62290;59.420;17.842;2023-02-22T05:58:57;101711.78;;;25.44;15.85
14293;BME280;62290;59.420;17.842;2023-02-22T06:01:26;101709.09;;;25.44;15.84
14293;BME280;62290;59.420;17.842;2023-02-22T06:03:54;101712.63;;;25.45;15.83
14293;BME280;62290;59.420;17.842;2023-02-22T06:06:23;101716.13;;;25.47;16.21
14293;BME280;62290;59.420;17.842;2023-02-22T06:08:52;101715.25;;;25.46;16.37
14293;BME280;62290;59.420;17.842;2023-02-22T06:11:20;101717.81;;;25.48;16.19
14293;BME280;62290;59.420;17.842;2023-02-22T06:13:48;101712.41;;;25.48;16.19
14293;BME280;62290;59.420;17.842;2023-02-22T06:16:18;101719.78;;;25.46;15.80
14293;BME280;62290;59.420;17.842;2023-02-22T06:18:46;101724.06;;;25.48;16.25
14293;BME280;62290;59.420;17.842;2023-02-22T06:21:15;101722.25;;;25.49;16.01
14293;BME280;62290;59.420;17.842;2023-02-22T06:23:45;101723.09;;;25.49;15.73
14293;BME280;62290;59.420;17.842;2023-02-22T06:26:15;101726.03;;;25.46;15.77
14293;BME280;62290;59.420;17.842;2023-02-22T06:28:43;101730.56;;;25.46;16.04
14293;BME280;62290;59.420;17.842;2023-02-22T06:31:11;101733.03;;;25.49;16.19
14293;BME280;62290;59.420;17.842;2023-02-22T06:33:39;101734.63;;;25.51;15.69
14293;BME280;62290;59.420;17.842;2023-02-22T06:36:08;101735.50;;;25.52;16.01
14293;BME280;62290;59.420;17.842;2023-02-22T06:38:37;101737.19;;;25.53;16.06
14293;BME280;62290;59.420;17.842;2023-02-22T06:41:07;101729.00;;;25.54;15.69
14293;BME280;62290;59.420;17.842;2023-02-22T06:43:35;101733.41;;;25.55;15.95
14293;BME280;62290;59.420;17.842;2023-02-22T06:46:03;101731.69;;;25.54;15.80
14293;BME280;62290;59.420;17.842;2023-02-22T06:48:31;101735.25;;;25.55;16.04
14293;BME280;62290;59.420;17.842;2023-02-22T06:50:59;101737.34;;;25.51;16.24
14293;BME280;62290;59.420;17.842;2023-02-22T06:53:28;101735.25;;;25.55;16.06
14293;BME280;62290;59.420;17.842;2023-02-22T06:55:55;101735.25;;;25.55;16.37
14293;BME280;62290;59.420;17.842;2023-02-22T06:58:25;101745.28;;;25.53;16.00
14293;BME280;62290;59.420;17.842;2023-02-22T07:00:53;101746.06;;;25.55;16.38
14293;BME280;62290;59.420;17.842;2023-02-22T07:03:21;101751.47;;;25.55;15.88
14293;BME280;62290;59.420;17.842;2023-02-22T07:05:49;101742.59;;;25.53;16.11
14293;BME280;62290;59.420;17.842;2023-02-22T07:08:17;101753.16;;;25.56;15.76
14293;BME280;62290;59.420;17.842;2023-02-22T07:10:45;101752.03;;;25.58;16.17
14293;BME280;62290;59.420;17.842;2023-02-22T07:13:16;101756.59;;;25.58;15.92
14293;BME280;62290;59.420;17.842;2023-02-22T07:15:45;101754.03;;;25.56;15.92
14293;BME280;62290;59.420;17.842;2023-02-22T07:18:13;101752.41;;;25.54;16.18
14293;BME280;62290;59.420;17.842;2023-02-22T07:20:42;101756.72;;;25.56;15.89
14293;BME280;62290;59.420;17.842;2023-02-22T07:23:13;101755.63;;;25.59;15.68
14293;BME280;62290;59.420;17.842;2023-02-22T07:25:41;101759.28;;;25.58;16.21
14293;BME280;62290;59.420;17.842;2023-02-22T07:28:09;101760.16;;;25.58;16.05
14293;BME280;62290;59.420;17.842;2023-02-22T07:30:38;101769.97;;;25.59;15.98
14293;BME280;62290;59.420;17.842;2023-02-22T07:33:09;101765.44;;;25.60;15.94
14293;BME280;62290;59.420;17.842;2023-02-22T07:35:42;101773.28;;;25.63;16.11
14293;BME280;62290;59.420;17.842;2023-02-22T07:38:13;101772.31;;;25.64;15.99
14293;BME280;62290;59.420;17.842;2023-02-22T07:40:42;101774.03;;;25.65;15.53
14293;BME280;62290;59.420;17.842;2023-02-22T07:43:14;101780.28;;;25.65;15.79
14293;BME280;62290;59.420;17.842;2023-02-22T07:45:43;101782.13;;;25.65;15.94
14293;BME280;62290;59.420;17.842;2023-02-22T07:48:16;101787.41;;;25.66;15.92
14293;BME280;62290;59.420;17.842;2023-02-22T07:50:45;101787.28;;;25.68;15.58
14293;BME280;62290;59.420;17.842;2023-02-22T07:53:16;101791.59;;;25.70;15.81
14293;BME280;62290;59.420;17.842;2023-02-22T07:55:45;101793.19;;;25.73;15.55
14293;BME280;62290;59.420;17.842;2023-02-22T07:58:14;101795.75;;;25.74;15.48
14293;BME280;62290;59.420;17.842;2023-02-22T08:00:42;101791.22;;;25.75;15.65
14293;BME280;62290;59.420;17.842;2023-02-22T08:03:12;101795.63;;;25.76;16.00
14293;BME280;62290;59.420;17.842;2023-02-22T08:05:45;101796.38;;;25.78;15.82
14293;BME280;62290;59.420;17.842;2023-02-22T08:08:14;101799.19;;;25.76;15.97
14293;BME280;62290;59.420;17.842;2023-02-22T08:10:46;101795.75;;;25.74;15.68
14293;BME280;62290;59.420;17.842;2023-02-22T08:13:15;101793.28;;;25.71;15.71
14293;BME280;62290;59.420;17.842;2023-02-22T08:15:43;101771.69;;;25.49;15.85
14293;BME280;62290;59.420;17.842;2023-02-22T08:18:14;101797.69;;;25.61;15.91
14293;BME280;62290;59.420;17.842;2023-02-22T08:20:45;101797.56;;;25.63;16.08
14293;BME280;62290;59.420;17.842;2023-02-22T08:23:15;101805.66;;;25.63;15.85
14293;BME280;62290;59.420;17.842;2023-02-22T08:25:44;101796.47;;;25.65;15.85
14293;BME280;62290;59.420;17.842;2023-02-22T08:28:15;101765.28;;;25.50;15.51
14293;BME280;62290;59.420;17.842;2023-02-22T08:30:43;101800.53;;;25.71;15.60
14293;BME280;62290;59.420;17.842;2023-02-22T08:33:13;101804.00;;;25.73;15.09
14293;BME280;62290;59.420;17.842;2023-02-22T08:35:46;101802.03;;;25.75;15.40
14293;BME280;62290;59.420;17.842;2023-02-22T08:38:19;101809.00;;;25.77;15.35
14293;BME280;62290;59.420;17.842;2023-02-22T08:40:47;101798.31;;;25.76;14.91
14293;BME280;62290;59.420;17.842;2023-02-22T08:43:16;101807.19;;;25.78;14.86
14293;BME280;62290;59.420;17.842;2023-02-22T08:45:45;101804.34;;;25.80;14.85
14293;BME280;62290;59.420;17.842;2023-02-22T08:48:13;101804.34;;;25.80;14.94
14293;BME280;62290;59.420;17.842;2023-02-22T08:50:42;101802.50;;;25.80;15.14
14293;BME280;62290;59.420;17.842;2023-02-22T08:53:12;101808.78;;;25.81;15.14
14293;BME280;62290;59.420;17.842;2023-02-22T08:55:42;101801.66;;;25.80;14.89
14293;BME280;62290;59.420;17.842;2023-02-22T08:58:11;101780.41;;;25.64;14.79
14293;BME280;62290;59.420;17.842;2023-02-22T09:00:40;101811.25;;;25.84;15.07
14293;BME280;62290;59.420;17.842;2023-02-22T09:03:11;101810.22;;;25.85;15.07
14293;BME280;62290;59.420;17.842;2023-02-22T09:05:40;101816.50;;;25.85;14.67
14293;BME280;62290;59.420;17.842;2023-02-22T09:08:08;101817.00;;;25.90;14.87
14293;BME280;62290;59.420;17.842;2023-02-22T09:10:38;101810.34;;;25.94;15.01
14293;BME280;62290;59.420;17.842;2023-02-22T09:13:06;101812.31;;;25.92;14.86
14293;BME280;62290;59.420;17.842;2023-02-22T09:15:34;101813.03;;;25.94;14.79
14293;BME280;62290;59.420;17.842;2023-02-22T09:18:03;101816.75;;;25.93;14.67
14293;BME280;62290;59.420;17.842;2023-02-22T09:20:31;101817.84;;;25.91;14.71
14293;BME280;62290;59.420;17.842;2023-02-22T09:23:02;101822.53;;;25.89;15.23
14293;BME280;62290;59.420;17.842;2023-02-22T09:25:30;101822.53;;;25.89;15.32
14293;BME280;62290;59.420;17.842;2023-02-22T09:28:01;101819.19;;;25.85;15.34
14293;BME280;62290;59.420;17.842;2023-02-22T09:30:31;101830.72;;;25.87;15.29
14293;BME280;62290;59.420;17.842;2023-02-22T09:33:01;101816.50;;;25.85;14.98
14293;BME280;62290;59.420;17.842;2023-02-22T09:35:29;101816.63;;;25.84;15.27
14293;BME280;62290;59.420;17.842;2023-02-22T09:38:03;101827.91;;;25.77;14.92
14293;BME280;62290;59.420;17.842;2023-02-22T09:40:35;101830.13;;;25.72;15.14
14293;BME280;62290;59.420;17.842;2023-02-22T09:43:35;101834.16;;;25.67;15.16
14293;BME280;62290;59.420;17.842;2023-02-22T09:46:17;101831.06;;;25.60;14.84
14293;BME280;62290;59.420;17.842;2023-02-22T09:48:59;101833.91;;;25.59;15.07
14293;BME280;62290;59.420;17.842;2023-02-22T09:51:33;101841.03;;;25.60;14.73
14293;BME280;62290;59.420;17.842;2023-02-22T09:54:12;101836.38;;;25.62;15.24
14293;BME280;62290;59.420;17.842;2023-02-22T09:56:45;101831.47;;;25.67;15.03
14293;BME280;62290;59.420;17.842;2023-02-22T09:59:21;101834.03;;;25.80;15.11
14293;BME280;62290;59.420;17.842;2023-02-22T10:01:58;101834.94;;;25.91;15.06
14293;BME280;62290;59.420;17.842;2023-02-22T10:04:35;101835.19;;;25.99;15.08
14293;BME280;62290;59.420;17.842;2023-02-22T10:07:14;101838.22;;;26.06;14.46
14293;BME280;62290;59.420;17.842;2023-02-22T10:09:46;101825.34;;;26.09;14.90
14293;BME280;62290;59.420;17.842;2023-02-22T10:12:23;101824.75;;;26.17;14.80
14293;BME280;62290;59.420;17.842;2023-02-22T10:15:12;101828.53;;;26.25;14.54
14293;BME280;62290;59.420;17.842;2023-02-22T10:17:50;101831.22;;;26.25;14.82
14293;BME280;62290;59.420;17.842;2023-02-22T10:20:34;101831.28;;;26.14;15.11
14293;BME280;62290;59.420;17.842;2023-02-22T10:23:12;101832.69;;;26.07;15.17
14293;BME280;62290;59.420;17.842;2023-02-22T10:25:48;101821.06;;;26.07;14.97
14293;BME280;62290;59.420;17.842;2023-02-22T10:28:21;101824.09;;;26.02;15.45
14293;BME280;62290;59.420;17.842;2023-02-22T10:30:56;101828.78;;;26.00;15.13
14293;BME280;62290;59.420;17.842;2023-02-22T10:33:28;101805.94;;;25.93;15.35
14293;BME280;62290;59.420;17.842;2023-02-22T10:35:57;101820.81;;;25.99;15.36
14293;BME280;62290;59.420;17.842;2023-02-22T10:38:27;101817.25;;;25.98;15.35
14293;BME280;62290;59.420;17.842;2023-02-22T10:40:59;101810.50;;;26.04;15.22
14293;BME280;62290;59.420;17.842;2023-02-22T10:43:29;101810.50;;;26.04;15.34
14293;BME280;62290;59.420;17.842;2023-02-22T10:46:02;101812.56;;;26.11;15.42
14293;BME280;62290;59.420;17.842;2023-02-22T10:48:35;101814.19;;;26.14;15.92
14293;BME280;62290;59.420;17.842;2023-02-22T10:51:07;101814.81;;;26.17;16.23
14293;BME280;62290;59.420;17.842;2023-02-22T10:53:36;101823.41;;;26.22;17.13
14293;BME280;62290;59.420;17.842;2023-02-22T10:56:07;101824.84;;;26.26;17.25
14293;BME280;62290;59.420;17.842;2023-02-22T10:58:41;101815.53;;;26.30;17.86
14293;BME280;62290;59.420;17.842;2023-02-22T11:01:33;101823.50;;;26.32;18.44
14293;BME280;62290;59.420;17.842;2023-02-22T11:04:09;101816.00;;;26.35;19.53
14293;BME280;62290;59.420;17.842;2023-02-22T11:06:39;101804.22;;;26.25;20.23
14293;BME280;62290;59.420;17.842;2023-02-22T11:09:12;101818.19;;;26.42;20.35
14293;BME280;62290;59.420;17.842;2023-02-22T11:11:43;101816.09;;;26.45;20.45
14293;BME280;62290;59.420;17.842;2023-02-22T11:14:12;101819.69;;;26.46;20.93
14293;BME280;62290;59.420;17.842;2023-02-22T11:16:48;101826.53;;;26.50;20.81
14293;BME280;62290;59.420;17.842;2023-02-22T11:19:20;101797.94;;;26.36;20.19
14293;BME280;62290;59.420;17.842;2023-02-22T11:21:51;101827.88;;;26.55;20.23
14293;BME280;62290;59.420;17.842;2023-02-22T11:24:22;101829.06;;;26.62;20.43
14293;BME280;62290;59.420;17.842;2023-02-22T11:27:00;101839.66;;;26.65;20.19
14293;BME280;62290;59.420;17.842;2023-02-22T11:29:31;101833.00;;;26.69;19.69
14293;BME280;62290;59.420;17.842;2023-02-22T11:32:11;101829.28;;;26.70;19.36
14293;BME280;62290;59.420;17.842;2023-02-22T11:34:41;101834.59;;;26.72;18.99
14293;BME280;62290;59.420;17.842;2023-02-22T11:37:18;101831.66;;;26.75;18.87
14293;BME280;62290;59.420;17.842;2023-02-22T11:40:04;101832.47;;;26.75;18.52
14293;BME280;62290;59.420;17.842;2023-02-22T11:42:33;101836.03;;;26.76;18.57
14293;BME280;62290;59.420;17.842;2023-02-22T11:45:10;101844.81;;;26.79;17.96
14293;BME280;62290;59.420;17.842;2023-02-22T11:47:51;101834.22;;;26.76;17.98
14293;BME280;62290;59.420;17.842;2023-02-22T11:50:28;101837.31;;;26.72;17.60
14293;BME280;62290;59.420;17.842;2023-02-22T11:53:17;101832.41;;;26.66;17.53
14293;BME280;62290;59.420;17.842;2023-02-22T11:55:58;101843.34;;;26.64;17.28
14293;BME280;62290;59.420;17.842;2023-02-22T11:58:34;101841.63;;;26.63;17.41
14293;BME280;62290;59.420;17.842;2023-02-22T12:01:11;101817.44;;;26.51;16.94
14293;BME280;62290;59.420;17.842;2023-02-22T12:04:12;101842.00;;;26.59;17.06
14293;BME280;62290;59.420;17.842;2023-02-22T12:06:50;101838.81;;;26.54;16.75
14293;BME280;62290;59.420;17.842;2023-02-22T12:09:30;101837.22;;;26.51;16.83
14293;BME280;62290;59.420;17.842;2023-02-22T12:12:09;101841.06;;;26.49;16.60
14293;BME280;62290;59.420;17.842;2023-02-22T12:14:48;101837.34;;;26.50;16.40
14293;BME280;62290;59.420;17.842;2023-02-22T12:17:38;101837.34;;;26.50;16.49
14293;BME280;62290;59.420;17.842;2023-02-22T12:20:28;101821.03;;;26.40;15.83
14293;BME280;62290;59.420;17.842;2023-02-22T12:23:04;101828.91;;;26.43;16.30
14293;BME280;62290;59.420;17.842;2023-02-22T12:25:37;101829.13;;;26.40;15.88
14293;BME280;62290;59.420;17.842;2023-02-22T12:28:17;101830.97;;;26.40;15.89
14293;BME280;62290;59.420;17.842;2023-02-22T12:30:55;101831.94;;;26.38;15.77
14293;BME280;62290;59.420;17.842;2023-02-22T12:33:41;101825.56;;;26.40;16.02
14293;BME280;62290;59.420;17.842;2023-02-22T12:36:15;101828.28;;;26.40;15.98
14293;BME280;62290;59.420;17.842;2023-02-22T12:38:51;101828.13;;;26.41;16.00
14293;BME280;62290;59.420;17.842;2023-02-22T12:41:26;101823.72;;;26.40;15.92
14293;BME280;62290;59.420;17.842;2023-02-22T12:44:01;101825.44;;;26.41;15.82
14293;BME280;62290;59.420;17.842;2023-02-22T12:46:36;101820.16;;;26.40;15.47
14293;BME280;62290;59.420;17.842;2023-02-22T12:49:13;101821.13;;;26.38;15.43
14293;BME280;62290;59.420;17.842;2023-02-22T12:51:51;101809.13;;;26.20;15.90
14293;BME280;62290;59.420;17.842;2023-02-22T12:54:27;101818.81;;;26.34;15.57
14293;BME280;62290;59.420;17.842;2023-02-22T12:57:07;101822.38;;;26.34;15.42
14293;BME280;62290;59.420;17.842;2023-02-22T12:59:44;101823.38;;;26.33;15.37
14293;BME280;62290;59.420;17.842;2023-02-22T13:02:20;101801.16;;;26.19;15.87
14293;BME280;62290;59.420;17.842;2023-02-22T13:04:49;101824.75;;;26.28;15.26
14293;BME280;62290;59.420;17.842;2023-02-22T13:07:34;101817.63;;;26.27;15.63
14293;BME280;62290;59.420;17.842;2023-02-22T13:10:30;101815.28;;;26.22;15.49
14293;BME280;62290;59.420;17.842;2023-02-22T13:13:08;101813.31;;;26.24;15.73
14293;BME280;62290;59.420;17.842;2023-02-22T13:15:44;101788.25;;;26.11;15.68
14293;BME280;62290;59.420;17.842;2023-02-22T13:18:16;101810.22;;;26.29;15.25